Time;durP1;ratioP1;P1;durP2;ratioP2;P2;SDS_P1;SDS_P2;PMS_P1;PMS_P2;Temp;Humidity;BMP_temperature;BMP_pressure;BME280_temperature;BME280_humidity;BME280_pressure;Samples;Min_cycle;Max_cycle;Signal;HPM_P1;HPM_P2
2023/04/09 00:01:23;;;;;;;56.63;39.93;;;7.60;99.90;;;;;;5018332;28;20845;-66
2023/04/09 00:03:52;;;;;;;51.17;39.60;;;7.60;99.90;;;;;;5031362;28;20570;-66
2023/04/09 00:06:20;;;;;;;52.80;39.00;;;7.60;99.90;;;;;;5025173;28;20570;-67
2023/04/09 00:08:48;;;;;;;52.00;38.97;;;7.60;99.90;;;;;;5024604;28;20483;-66
2023/04/09 00:11:16;;;;;;;56.07;39.87;;;7.60;99.90;;;;;;5031286;28;20473;-66
2023/04/09 00:13:44;;;;;;;60.73;45.50;;;7.50;99.90;;;;;;5023271;28;20483;-66
2023/04/09 00:16:13;;;;;;;56.00;44.20;;;7.60;99.90;;;;;;5028168;28;21165;-67
2023/04/09 00:18:41;;;;;;;54.50;41.43;;;7.60;99.90;;;;;;5029433;28;21003;-66
2023/04/09 00:21:10;;;;;;;55.23;43.87;;;7.60;99.90;;;;;;5021966;28;20481;-66
2023/04/09 00:23:38;;;;;;;62.20;44.30;;;7.60;99.90;;;;;;5029242;28;20466;-67
2023/04/09 00:26:06;;;;;;;60.40;44.43;;;7.60;99.90;;;;;;5028703;28;20482;-67
2023/04/09 00:28:34;;;;;;;64.10;47.00;;;7.60;99.90;;;;;;5020443;28;20505;-66
2023/04/09 00:31:02;;;;;;;69.67;46.80;;;7.60;99.90;;;;;;5029233;28;20499;-66
2023/04/09 00:33:30;;;;;;;74.33;52.40;;;7.60;99.90;;;;;;5022441;28;20529;-67
2023/04/09 00:35:58;;;;;;;76.20;50.90;;;7.50;99.90;;;;;;5026995;28;20475;-67
2023/04/09 00:38:28;;;;;;;77.10;52.37;;;7.50;99.90;;;;;;5031025;28;20485;-66
2023/04/09 00:40:56;;;;;;;76.67;51.77;;;7.50;99.90;;;;;;5021764;28;20483;-66
2023/04/09 00:43:24;;;;;;;76.60;51.37;;;7.50;99.90;;;;;;5028929;28;20979;-65
2023/04/09 00:45:52;;;;;;;69.77;49.77;;;7.50;99.90;;;;;;5028322;28;20835;-66
2023/04/09 00:48:21;;;;;;;77.23;50.77;;;7.50;99.90;;;;;;5021548;28;20483;-66
2023/04/09 00:50:49;;;;;;;78.13;49.90;;;7.50;99.90;;;;;;5028252;28;20490;-67
2023/04/09 00:53:17;;;;;;;70.00;46.27;;;7.50;99.90;;;;;;5019519;28;20976;-67
2023/04/09 00:55:47;;;;;;;63.30;44.43;;;7.50;99.90;;;;;;5023894;28;20474;-66
2023/04/09 00:58:15;;;;;;;59.80;42.33;;;7.50;99.90;;;;;;5029021;28;20479;-67
2023/04/09 01:00:43;;;;;;;61.07;41.97;;;7.50;99.90;;;;;;5023018;28;20499;-66
2023/04/09 01:03:11;;;;;;;65.73;43.10;;;7.50;99.90;;;;;;5029215;28;20475;-66
2023/04/09 01:05:47;;;;;;;64.30;41.87;;;7.50;99.90;;;;;;5025937;28;21083;-66
2023/04/09 01:08:26;;;;;;;60.17;43.10;;;7.50;99.90;;;;;;5020698;28;20491;-66
2023/04/09 01:11:05;;;;;;;64.80;42.30;;;7.50;99.90;;;;;;5026611;28;20522;-66
2023/04/09 01:13:42;;;;;;;60.67;42.30;;;7.50;99.90;;;;;;5020749;28;21532;-67
2023/04/09 01:16:12;;;;;;;67.23;43.73;;;7.40;99.90;;;;;;5027741;28;20467;-66
2023/04/09 01:18:47;;;;;;;65.47;43.00;;;7.40;99.90;;;;;;5027274;28;20491;-66
2023/04/09 01:21:19;;;;;;;58.77;40.27;;;7.40;99.90;;;;;;5016995;28;20471;-66
2023/04/09 01:23:54;;;;;;;55.53;38.20;;;7.40;99.90;;;;;;5029170;28;20835;-66
2023/04/09 01:26:38;;;;;;;62.37;40.97;;;7.40;99.90;;;;;;5025330;28;21001;-66
2023/04/09 01:29:08;;;;;;;58.10;40.17;;;7.40;99.90;;;;;;5025992;28;20753;-66
2023/04/09 01:31:38;;;;;;;57.40;38.77;;;7.40;99.90;;;;;;5027590;28;20487;-66
2023/04/09 01:34:08;;;;;;;59.93;41.53;;;7.40;99.90;;;;;;5020740;28;20920;-66
2023/04/09 01:36:38;;;;;;;58.27;39.93;;;7.40;99.90;;;;;;5025003;28;20475;-66
2023/04/09 01:39:06;;;;;;;67.50;43.97;;;7.40;99.90;;;;;;5026889;28;20492;-67
2023/04/09 01:41:35;;;;;;;64.83;43.10;;;7.40;99.90;;;;;;5018081;28;20479;-66
2023/04/09 01:44:05;;;;;;;69.27;42.70;;;7.40;99.90;;;;;;5028488;28;20467;-66
2023/04/09 01:46:36;;;;;;;67.00;43.40;;;7.40;99.90;;;;;;5025510;28;20475;-67
2023/04/09 01:49:05;;;;;;;65.50;45.60;;;7.50;99.90;;;;;;5021585;28;20491;-66
2023/04/09 01:51:34;;;;;;;70.87;45.07;;;7.40;99.90;;;;;;5008737;28;20469;-66
2023/04/09 01:54:02;;;;;;;71.53;47.93;;;7.40;99.90;;;;;;5006066;28;20468;-67
2023/04/09 01:56:40;;;;;;;75.70;46.80;;;7.40;99.90;;;;;;5026628;28;20789;-65
2023/04/09 01:59:09;;;;;;;71.53;45.27;;;7.50;99.90;;;;;;5028337;28;20564;-66
2023/04/09 02:01:44;;;;;;;73.27;46.50;;;7.40;99.90;;;;;;5019316;28;20490;-66
2023/04/09 02:04:19;;;;;;;72.43;46.50;;;7.40;99.90;;;;;;5027911;28;20570;-66
2023/04/09 02:06:55;;;;;;;70.43;45.43;;;7.40;99.90;;;;;;5022281;28;20478;-67
2023/04/09 02:09:26;;;;;;;70.90;43.87;;;7.50;99.90;;;;;;5019068;28;20513;-67
2023/04/09 02:11:54;;;;;;;61.87;40.40;;;7.40;99.90;;;;;;5028318;28;20474;-67
2023/04/09 02:14:25;;;;;;;60.00;41.53;;;7.40;99.90;;;;;;5018271;28;20471;-66
2023/04/09 02:16:55;;;;;;;61.00;40.97;;;7.50;99.90;;;;;;5024283;28;20891;-66
2023/04/09 02:19:23;;;;;;;64.23;42.70;;;7.40;99.90;;;;;;5027200;28;20480;-67
2023/04/09 02:21:51;;;;;;;73.40;47.43;;;7.40;99.90;;;;;;5017355;28;20472;-67
2023/04/09 02:24:19;;;;;;;65.07;40.63;;;7.40;99.90;;;;;;5035521;28;20468;-67
2023/04/09 02:26:47;;;;;;;64.40;41.47;;;7.40;99.90;;;;;;5044200;28;20470;-67
2023/04/09 02:29:15;;;;;;;63.20;40.90;;;7.40;99.90;;;;;;5041582;28;20487;-66
2023/04/09 02:31:44;;;;;;;59.50;41.03;;;7.40;99.90;;;;;;5032981;28;20493;-66
2023/04/09 02:34:13;;;;;;;61.27;39.80;;;7.40;99.90;;;;;;5018886;28;20533;-66
2023/04/09 02:36:41;;;;;;;62.27;39.13;;;7.40;99.90;;;;;;5024196;28;20456;-66
2023/04/09 02:39:09;;;;;;;60.23;37.13;;;7.40;99.90;;;;;;5027161;28;20475;-66
2023/04/09 02:41:37;;;;;;;70.00;40.67;;;7.40;99.90;;;;;;5019534;28;20582;-66
2023/04/09 02:44:05;;;;;;;63.50;39.33;;;7.40;99.90;;;;;;5025310;28;20575;-65
2023/04/09 02:46:33;;;;;;;66.10;41.10;;;7.40;99.90;;;;;;5032885;28;20463;-68
2023/04/09 02:49:01;;;;;;;68.97;39.80;;;7.40;99.90;;;;;;5033876;28;20487;-66
2023/04/09 02:51:30;;;;;;;69.70;45.10;;;7.40;99.90;;;;;;5026877;28;20475;-66
2023/04/09 02:53:58;;;;;;;79.97;46.73;;;7.40;99.90;;;;;;5022314;28;20478;-66
2023/04/09 02:56:26;;;;;;;71.10;44.13;;;7.40;99.90;;;;;;5023258;28;20486;-66
2023/04/09 02:58:54;;;;;;;76.07;43.70;;;7.40;99.90;;;;;;5025205;28;20514;-68
2023/04/09 03:01:22;;;;;;;67.93;42.10;;;7.40;99.90;;;;;;5017958;28;20471;-66
2023/04/09 03:03:50;;;;;;;77.60;46.80;;;7.40;99.90;;;;;;5024850;28;20482;-67
2023/04/09 03:06:18;;;;;;;68.57;40.20;;;7.40;99.90;;;;;;5021966;28;20467;-66
2023/04/09 03:08:48;;;;;;;67.30;42.63;;;7.40;99.90;;;;;;5014350;28;21030;-66
2023/04/09 03:11:16;;;;;;;63.80;41.00;;;7.40;99.90;;;;;;5025697;28;20491;-67
2023/04/09 03:13:44;;;;;;;63.33;37.70;;;7.30;99.90;;;;;;5025960;28;20967;-66
2023/04/09 03:16:13;;;;;;;67.57;44.00;;;7.30;99.90;;;;;;5029910;28;21304;-67
2023/04/09 03:18:41;;;;;;;65.90;41.07;;;7.30;99.90;;;;;;5021298;28;21076;-67
2023/04/09 03:21:09;;;;;;;58.00;37.73;;;7.30;99.90;;;;;;5027618;28;20997;-66
2023/04/09 03:23:41;;;;;;;64.63;39.90;;;7.30;99.90;;;;;;5028932;28;20474;-66
2023/04/09 03:26:10;;;;;;;63.30;41.70;;;7.30;99.90;;;;;;5019571;28;20475;-66
2023/04/09 03:28:38;;;;;;;59.33;40.20;;;7.30;99.90;;;;;;5019940;28;20835;-66
2023/04/09 03:31:06;;;;;;;59.83;38.00;;;7.30;99.90;;;;;;5028779;28;20494;-66
2023/04/09 03:33:34;;;;;;;59.57;35.47;;;7.30;99.90;;;;;;5028923;28;20475;-66
2023/04/09 03:36:02;;;;;;;56.67;36.30;;;7.30;99.90;;;;;;5022546;28;20490;-67
2023/04/09 03:38:30;;;;;;;52.10;35.80;;;7.30;99.90;;;;;;5029494;28;20490;-66
2023/04/09 03:40:58;;;;;;;50.37;33.50;;;7.30;99.90;;;;;;5022812;28;20501;-66
2023/04/09 03:43:28;;;;;;;52.60;35.90;;;7.30;99.90;;;;;;5027260;28;20482;-67
2023/04/09 03:45:56;;;;;;;65.23;36.00;;;7.30;99.90;;;;;;5030580;28;20467;-66
2023/04/09 03:48:24;;;;;;;62.03;39.00;;;7.30;99.90;;;;;;5021904;28;20487;-66
2023/04/09 03:50:52;;;;;;;77.40;47.80;;;7.30;99.90;;;;;;5027950;28;20490;-66
2023/04/09 03:53:20;;;;;;;70.73;45.50;;;7.30;99.90;;;;;;5027335;28;21006;-66
2023/04/09 03:55:48;;;;;;;61.03;40.10;;;7.30;99.90;;;;;;5022219;28;21139;-66
2023/04/09 03:58:16;;;;;;;61.83;40.10;;;7.30;99.90;;;;;;5031994;28;20483;-66
2023/04/09 04:00:45;;;;;;;63.67;41.10;;;7.30;99.90;;;;;;5027494;28;20499;-66
2023/04/09 04:03:15;;;;;;;64.43;42.03;;;7.30;99.90;;;;;;5019354;28;20467;-65
2023/04/09 04:05:43;;;;;;;73.43;47.60;;;7.30;99.90;;;;;;5031463;28;20506;-65
2023/04/09 04:08:11;;;;;;;65.87;39.43;;;7.30;99.90;;;;;;5016351;28;21216;-68
2023/04/09 04:10:39;;;;;;;65.13;37.37;;;7.30;99.90;;;;;;5025386;28;20502;-66
2023/04/09 04:13:07;;;;;;;60.60;38.33;;;7.30;99.90;;;;;;5029397;28;21002;-65
2023/04/09 04:15:40;;;;;;;57.83;37.50;;;7.30;99.90;;;;;;5022145;28;20581;-66
2023/04/09 04:18:10;;;;;;;56.13;36.30;;;7.30;99.90;;;;;;5027284;28;20490;-66
2023/04/09 04:20:38;;;;;;;58.13;36.13;;;7.30;99.90;;;;;;5028533;28;20494;-65
2023/04/09 04:23:06;;;;;;;60.43;39.83;;;7.30;99.90;;;;;;5020603;28;20479;-66
2023/04/09 04:25:34;;;;;;;67.80;42.60;;;7.30;99.90;;;;;;5028435;28;20474;-66
2023/04/09 04:28:02;;;;;;;65.80;41.10;;;7.30;99.90;;;;;;5018360;28;20487;-66
2023/04/09 04:30:30;;;;;;;68.67;40.40;;;7.30;99.90;;;;;;5029289;28;20494;-66
2023/04/09 04:32:58;;;;;;;59.67;37.40;;;7.30;99.90;;;;;;5026964;28;21121;-67
2023/04/09 04:35:27;;;;;;;60.30;39.00;;;7.30;99.90;;;;;;5017884;28;20477;-67
2023/04/09 04:37:55;;;;;;;68.70;39.60;;;7.30;99.90;;;;;;5029062;28;20730;-66
2023/04/09 04:40:24;;;;;;;67.67;41.63;;;7.30;99.90;;;;;;5024841;28;20502;-66
2023/04/09 04:42:51;;;;;;;71.57;42.17;;;7.30;99.90;;;;;;5022875;28;20489;-66
2023/04/09 04:45:19;;;;;;;76.50;44.00;;;7.30;99.90;;;;;;5039603;28;20468;-67
2023/04/09 04:47:47;;;;;;;73.63;42.93;;;7.30;99.90;;;;;;5043357;28;20463;-66
2023/04/09 04:50:15;;;;;;;77.40;41.00;;;7.30;99.90;;;;;;5051037;28;20480;-67
2023/04/09 04:52:45;;;;;;;68.77;38.97;;;7.30;99.90;;;;;;5054621;28;20475;-67
2023/04/09 04:55:12;;;;;;;57.43;35.23;;;7.30;99.90;;;;;;5043150;28;20468;-67
2023/04/09 04:57:43;;;;;;;57.20;35.70;;;7.30;99.90;;;;;;5044120;28;20467;-66
2023/04/09 05:00:12;;;;;;;49.67;32.03;;;7.30;99.90;;;;;;5026778;28;20499;-66
2023/04/09 05:02:40;;;;;;;55.40;34.90;;;7.30;99.90;;;;;;5023407;28;21019;-66
2023/04/09 05:05:09;;;;;;;63.73;36.63;;;7.30;99.90;;;;;;5027587;28;21055;-68
2023/04/09 05:07:37;;;;;;;57.60;35.83;;;7.30;99.90;;;;;;5019435;28;20514;-66
2023/04/09 05:10:08;;;;;;;57.07;36.00;;;7.30;99.90;;;;;;5029360;28;20491;-65
2023/04/09 05:12:36;;;;;;;66.13;39.10;;;7.30;99.90;;;;;;5029609;28;20456;-66
2023/04/09 05:15:05;;;;;;;69.57;41.73;;;7.30;99.90;;;;;;5018717;28;20879;-66
2023/04/09 05:17:32;;;;;;;68.00;41.57;;;7.40;99.90;;;;;;5030234;28;20471;-65
2023/04/09 05:20:00;;;;;;;69.27;42.63;;;7.40;99.90;;;;;;5028528;28;20509;-66
2023/04/09 05:22:28;;;;;;;82.17;46.93;;;7.40;99.90;;;;;;5021669;28;20467;-65
2023/04/09 05:24:56;;;;;;;64.23;41.30;;;7.40;99.90;;;;;;5028635;28;20467;-66
2023/04/09 05:27:27;;;;;;;59.20;37.63;;;7.40;99.90;;;;;;5023327;28;20463;-67
2023/04/09 05:29:55;;;;;;;66.40;38.37;;;7.40;99.90;;;;;;5031195;28;20479;-66
2023/04/09 05:32:23;;;;;;;66.00;38.30;;;7.40;99.90;;;;;;5027637;28;20475;-66
2023/04/09 05:34:51;;;;;;;65.73;39.33;;;7.40;99.90;;;;;;5021963;28;20499;-67
2023/04/09 05:37:19;;;;;;;60.17;37.67;;;7.40;99.90;;;;;;5028485;28;20487;-65
2023/04/09 05:39:47;;;;;;;66.57;40.00;;;7.40;99.90;;;;;;5024071;28;20488;-67
2023/04/09 05:42:15;;;;;;;64.00;39.30;;;7.40;99.90;;;;;;5022863;28;20468;-67
2023/04/09 05:44:44;;;;;;;71.37;40.70;;;7.40;99.90;;;;;;5022894;28;22406;-66
2023/04/09 05:47:12;;;;;;;71.93;41.80;;;7.40;99.90;;;;;;5021122;28;20467;-66
2023/04/09 05:49:40;;;;;;;66.23;39.20;;;7.50;99.90;;;;;;5026073;28;20491;-66
2023/04/09 05:52:08;;;;;;;59.70;36.20;;;7.50;99.90;;;;;;5029325;28;20568;-66
2023/04/09 05:54:36;;;;;;;68.37;37.80;;;7.50;99.90;;;;;;5021363;28;21179;-66
2023/04/09 05:57:04;;;;;;;67.40;39.73;;;7.50;99.90;;;;;;5023318;28;20518;-66
2023/04/09 05:59:32;;;;;;;69.40;41.37;;;7.50;99.90;;;;;;5025182;28;20483;-66
2023/04/09 06:02:02;;;;;;;64.13;37.47;;;7.50;99.90;;;;;;5014975;28;20960;-66
2023/04/09 06:04:30;;;;;;;67.80;40.23;;;7.50;99.90;;;;;;5025125;28;20877;-65
2023/04/09 06:06:59;;;;;;;64.33;39.80;;;7.50;99.90;;;;;;5018291;28;21068;-66
2023/04/09 06:09:27;;;;;;;67.80;39.07;;;7.50;99.90;;;;;;5024938;28;20529;-67
2023/04/09 06:11:56;;;;;;;70.47;40.00;;;7.50;99.90;;;;;;5025432;28;20494;-66
2023/04/09 06:14:24;;;;;;;61.40;38.10;;;7.50;99.90;;;;;;5020065;28;20479;-66
2023/04/09 06:16:52;;;;;;;61.80;37.40;;;7.60;99.90;;;;;;5027002;28;20468;-66
2023/04/09 06:19:22;;;;;;;57.17;34.50;;;7.50;99.90;;;;;;5022601;28;20483;-66
2023/04/09 06:21:50;;;;;;;62.53;37.73;;;7.50;99.90;;;;;;5020021;28;20861;-66
2023/04/09 06:24:18;;;;;;;68.87;41.50;;;7.50;99.90;;;;;;5025519;28;20499;-67
2023/04/09 06:26:46;;;;;;;64.47;38.80;;;7.60;99.90;;;;;;5040188;28;20509;-68
2023/04/09 06:29:14;;;;;;;57.37;35.67;;;7.60;99.90;;;;;;5017174;28;20495;-66
2023/04/09 06:31:42;;;;;;;61.80;35.30;;;7.60;99.90;;;;;;5025996;28;20471;-66
2023/04/09 06:34:10;;;;;;;59.00;35.73;;;7.60;99.90;;;;;;5017637;28;20477;-66
2023/04/09 06:36:40;;;;;;;60.23;36.37;;;7.60;99.90;;;;;;5025419;28;20486;-65
2023/04/09 06:39:08;;;;;;;68.37;37.27;;;7.60;99.90;;;;;;5026996;28;20483;-66
2023/04/09 06:41:36;;;;;;;65.90;38.67;;;7.60;99.90;;;;;;5017969;28;20499;-69
2023/04/09 06:44:04;;;;;;;67.07;39.10;;;7.60;99.90;;;;;;5028536;28;20700;-66
2023/04/09 06:46:32;;;;;;;59.70;37.30;;;7.70;99.90;;;;;;5023762;28;20494;-66
2023/04/09 06:49:00;;;;;;;55.13;34.23;;;7.70;99.90;;;;;;5018296;28;20495;-66
2023/04/09 06:51:28;;;;;;;55.33;33.67;;;7.70;99.90;;;;;;5024322;28;20467;-66
2023/04/09 06:53:57;;;;;;;52.60;32.40;;;7.70;99.90;;;;;;5017105;28;20468;-67
2023/04/09 06:56:25;;;;;;;53.23;33.63;;;7.70;99.90;;;;;;5020782;28;20474;-66
2023/04/09 06:58:53;;;;;;;48.50;31.17;;;7.80;99.90;;;;;;5025541;28;21046;-66
2023/04/09 07:01:21;;;;;;;49.97;32.10;;;7.80;99.90;;;;;;5018609;28;20537;-65
2023/04/09 07:03:49;;;;;;;56.47;32.50;;;7.80;99.90;;;;;;5020836;28;20478;-66
2023/04/09 07:06:17;;;;;;;51.90;31.87;;;7.80;99.90;;;;;;5020952;28;20562;-67
2023/04/09 07:08:46;;;;;;;48.37;30.43;;;7.80;99.90;;;;;;5016380;28;20490;-66
2023/04/09 07:11:16;;;;;;;50.37;31.07;;;7.90;99.90;;;;;;5025094;28;20471;-66
2023/04/09 07:13:44;;;;;;;48.37;31.13;;;7.90;99.90;;;;;;5015913;28;20474;-66
2023/04/09 07:16:12;;;;;;;53.10;32.97;;;7.90;99.90;;;;;;5025803;28;20482;-67
2023/04/09 07:18:40;;;;;;;53.30;31.90;;;7.90;99.90;;;;;;5024829;28;20782;-65
2023/04/09 07:21:08;;;;;;;48.20;31.10;;;7.90;99.90;;;;;;5037736;28;20503;-66
2023/04/09 07:23:36;;;;;;;54.50;32.30;;;7.90;99.90;;;;;;5044207;28;20467;-66
2023/04/09 07:26:04;;;;;;;48.27;30.10;;;8.00;99.90;;;;;;5039494;28;20500;-67
2023/04/09 07:28:33;;;;;;;51.70;30.00;;;8.00;99.90;;;;;;5020946;28;20479;-66
2023/04/09 07:31:04;;;;;;;50.03;30.60;;;8.00;99.90;;;;;;5023717;28;20483;-66
2023/04/09 07:33:32;;;;;;;51.30;31.20;;;8.10;99.90;;;;;;5014730;28;20468;-66
2023/04/09 07:36:00;;;;;;;52.30;32.13;;;8.10;99.90;;;;;;5021805;28;20468;-66
2023/04/09 07:38:29;;;;;;;52.13;33.23;;;8.20;99.90;;;;;;5024405;28;20499;-66
2023/04/09 07:40:57;;;;;;;58.10;32.17;;;8.20;99.90;;;;;;5013199;28;21043;-68
2023/04/09 07:43:25;;;;;;;48.73;31.60;;;8.20;99.90;;;;;;5028128;28;20467;-66
2023/04/09 07:45:54;;;;;;;45.00;28.90;;;8.20;99.90;;;;;;5030487;28;20506;-66
2023/04/09 07:48:22;;;;;;;43.70;27.70;;;8.20;99.90;;;;;;5017369;28;20478;-66
2023/04/09 07:50:51;;;;;;;42.30;26.93;;;8.20;99.90;;;;;;5026524;28;20510;-67
2023/04/09 07:53:19;;;;;;;38.93;26.77;;;8.20;99.90;;;;;;5020297;28;21196;-67
2023/04/09 07:55:47;;;;;;;40.93;25.90;;;8.30;99.90;;;;;;5023509;28;20475;-67
2023/04/09 07:58:15;;;;;;;41.13;25.90;;;8.30;99.90;;;;;;5020723;28;20514;-67
2023/04/09 08:00:43;;;;;;;38.97;27.77;;;8.30;99.90;;;;;;5023200;28;20491;-67
2023/04/09 08:03:13;;;;;;;40.30;27.33;;;8.30;99.90;;;;;;5027804;28;20471;-66
2023/04/09 08:05:41;;;;;;;35.57;25.90;;;8.40;99.90;;;;;;5028774;28;20467;-67
2023/04/09 08:08:09;;;;;;;44.70;27.63;;;8.40;99.90;;;;;;5018092;28;20479;-66
2023/04/09 08:10:37;;;;;;;38.70;25.73;;;8.40;99.90;;;;;;5029099;28;20916;-66
2023/04/09 08:13:05;;;;;;;41.40;26.60;;;8.40;99.90;;;;;;5028103;28;20500;-67
2023/04/09 08:15:33;;;;;;;40.87;26.50;;;8.40;99.90;;;;;;5022806;28;20475;-66
2023/04/09 08:18:02;;;;;;;36.87;26.30;;;8.40;99.90;;;;;;5028487;28;20499;-67
2023/04/09 08:20:33;;;;;;;39.13;26.03;;;8.50;99.90;;;;;;5026603;28;20507;-66
2023/04/09 08:23:01;;;;;;;45.23;27.13;;;8.50;99.90;;;;;;5026038;28;20499;-66
2023/04/09 08:25:29;;;;;;;35.40;25.10;;;8.50;99.90;;;;;;5029220;28;21042;-65
2023/04/09 08:27:57;;;;;;;34.37;23.43;;;8.50;99.90;;;;;;5021533;28;21000;-66
2023/04/09 08:30:25;;;;;;;40.50;25.13;;;8.50;99.90;;;;;;5027788;28;20971;-67
2023/04/09 08:32:53;;;;;;;39.00;25.07;;;8.60;99.90;;;;;;5028477;28;20472;-68
2023/04/09 08:35:21;;;;;;;36.40;25.17;;;8.60;99.90;;;;;;5016372;28;20483;-66
2023/04/09 08:37:50;;;;;;;34.20;23.70;;;8.60;99.90;;;;;;5028532;28;20758;-66
2023/04/09 08:40:18;;;;;;;36.80;24.90;;;8.60;99.90;;;;;;5024136;28;20893;-66
2023/04/09 08:42:51;;;;;;;37.20;25.30;;;8.60;99.90;;;;;;5022450;28;20502;-66
2023/04/09 08:45:19;;;;;;;34.67;23.93;;;8.70;99.90;;;;;;5028741;28;20932;-66
2023/04/09 08:47:49;;;;;;;31.40;23.20;;;8.70;99.90;;;;;;5022474;28;20477;-67
2023/04/09 08:50:17;;;;;;;31.80;22.00;;;8.70;99.90;;;;;;5024073;28;20479;-66
2023/04/09 08:52:47;;;;;;;29.90;22.60;;;8.70;99.90;;;;;;5025984;28;20463;-67
2023/04/09 08:55:16;;;;;;;33.10;22.60;;;8.80;99.90;;;;;;5019265;28;20471;-67
2023/04/09 08:57:44;;;;;;;32.20;22.07;;;8.80;99.90;;;;;;5025780;28;20471;-67
2023/04/09 09:00:13;;;;;;;32.57;23.27;;;8.90;99.90;;;;;;5024550;28;21419;-67
2023/04/09 09:03:01;;;;;;;32.30;22.03;;;9.00;99.90;;;;;;5022726;28;21109;-66
2023/04/09 09:05:38;;;;;;;30.43;21.20;;;9.00;99.90;;;;;;5031190;28;20471;-67
2023/04/09 09:08:07;;;;;;;32.80;21.67;;;9.10;99.90;;;;;;5018293;28;20531;-67
2023/04/09 09:10:42;;;;;;;30.40;22.77;;;9.20;99.90;;;;;;5026890;28;20494;-67
2023/04/09 09:13:21;;;;;;;27.13;20.30;;;9.30;99.90;;;;;;5025908;28;20473;-67
2023/04/09 09:15:52;;;;;;;29.27;19.73;;;9.40;99.90;;;;;;5017536;28;20471;-66
2023/04/09 09:18:21;;;;;;;25.10;19.90;;;9.40;99.90;;;;;;5020944;28;21042;-67
2023/04/09 09:20:49;;;;;;;23.90;17.80;;;9.40;99.90;;;;;;5017063;28;20495;-67
2023/04/09 09:23:31;;;;;;;24.00;18.97;;;9.50;99.90;;;;;;5024414;28;20487;-67
2023/04/09 09:26:12;;;;;;;24.77;19.03;;;9.50;99.90;;;;;;5025692;28;20473;-67
2023/04/09 09:28:40;;;;;;;26.00;18.73;;;9.50;99.90;;;;;;5017758;28;20487;-66
2023/04/09 09:31:09;;;;;;;27.00;19.13;;;9.50;99.90;;;;;;5023401;28;20502;-66
2023/04/09 09:33:37;;;;;;;24.27;18.80;;;9.50;99.90;;;;;;5018205;28;20510;-67
2023/04/09 09:36:08;;;;;;;24.70;19.17;;;9.50;99.90;;;;;;5026818;28;20476;-67
2023/04/09 09:38:51;;;;;;;27.93;19.50;;;9.50;99.90;;;;;;5027297;28;20582;-67
2023/04/09 09:41:22;;;;;;;26.03;19.20;;;9.50;99.90;;;;;;5015939;28;20870;-66
2023/04/09 09:43:51;;;;;;;26.03;19.37;;;9.50;99.90;;;;;;5023085;28;20852;-67
2023/04/09 09:46:21;;;;;;;23.33;19.23;;;9.50;99.90;;;;;;5021426;28;20926;-67
2023/04/09 09:48:49;;;;;;;29.00;21.40;;;9.60;99.90;;;;;;5013645;28;20483;-67
2023/04/09 09:51:19;;;;;;;26.97;19.83;;;9.60;99.90;;;;;;5029599;28;20565;-67
2023/04/09 09:53:49;;;;;;;25.23;18.70;;;9.60;99.90;;;;;;5020614;28;20472;-67
2023/04/09 09:56:23;;;;;;;25.23;19.63;;;9.60;99.90;;;;;;5025771;28;20493;-67
2023/04/09 09:59:02;;;;;;;23.23;19.03;;;9.70;99.90;;;;;;5025895;28;20526;-67
2023/04/09 10:01:30;;;;;;;23.73;18.40;;;9.70;99.90;;;;;;5023200;28;20525;-67
2023/04/09 10:04:00;;;;;;;25.07;19.30;;;9.70;99.90;;;;;;5041417;28;21035;-66
2023/04/09 10:06:30;;;;;;;22.03;18.83;;;9.70;99.90;;;;;;5026341;28;20841;-67
2023/04/09 10:09:04;;;;;;;25.67;19.13;;;9.70;99.90;;;;;;5016733;28;20853;-67
2023/04/09 10:11:36;;;;;;;21.47;17.97;;;9.70;99.90;;;;;;5023589;28;20998;-67
2023/04/09 10:14:05;;;;;;;23.53;18.80;;;9.70;99.90;;;;;;5018427;28;20837;-67
2023/04/09 10:16:34;;;;;;;25.50;18.53;;;9.80;99.90;;;;;;5026419;28;20501;-66
2023/04/09 10:19:02;;;;;;;23.70;19.07;;;9.80;99.90;;;;;;5026749;28;20911;-66
2023/04/09 10:21:39;;;;;;;23.50;18.37;;;9.80;99.90;;;;;;5015986;28;20470;-67
2023/04/09 10:24:10;;;;;;;24.53;19.80;;;9.80;99.90;;;;;;5029068;28;20501;-67
2023/04/09 10:26:43;;;;;;;23.27;19.17;;;9.80;99.90;;;;;;5022946;28;20467;-66
2023/04/09 10:29:13;;;;;;;22.30;18.10;;;9.90;99.90;;;;;;5018608;28;20500;-67
2023/04/09 10:31:51;;;;;;;19.87;17.20;;;9.90;99.90;;;;;;5027810;28;20491;-67
2023/04/09 10:34:21;;;;;;;24.93;18.20;;;9.90;99.90;;;;;;5016405;28;20521;-67
2023/04/09 10:36:55;;;;;;;23.50;18.20;;;9.90;99.90;;;;;;5021839;28;20578;-67
2023/04/09 10:39:28;;;;;;;20.23;17.23;;;9.90;99.90;;;;;;5026717;28;20501;-68
2023/04/09 10:41:58;;;;;;;23.63;17.87;;;9.80;99.90;;;;;;5018750;28;20467;-68
2023/04/09 10:44:31;;;;;;;24.43;18.73;;;9.80;99.90;;;;;;5025591;28;20478;-68
2023/04/09 10:46:59;;;;;;;22.73;18.53;;;9.80;99.90;;;;;;5024204;28;20470;-67
2023/04/09 10:49:35;;;;;;;22.43;18.37;;;9.80;99.90;;;;;;5014450;28;20498;-67
2023/04/09 10:52:05;;;;;;;25.80;19.13;;;9.80;99.90;;;;;;5027092;28;20471;-67
2023/04/09 10:54:53;;;;;;;24.07;19.23;;;9.90;99.90;;;;;;5024244;28;20875;-69
2023/04/09 10:57:25;;;;;;;25.27;19.63;;;9.90;99.90;;;;;;5023857;28;20475;-67
2023/04/09 10:59:54;;;;;;;25.53;20.20;;;10.00;99.90;;;;;;5022257;28;20491;-68
2023/04/09 11:03:10;;;;;;;20.90;18.60;;;10.00;99.90;;;;;;5014888;28;20470;-69
2023/04/09 11:05:40;;;;;;;23.87;19.73;;;10.20;99.90;;;;;;5025621;28;20557;-67
2023/04/09 11:08:10;;;;;;;20.07;17.87;;;10.30;99.90;;;;;;5019081;28;20498;-69
2023/04/09 11:10:39;;;;;;;24.20;19.20;;;10.40;99.90;;;;;;5023207;28;20491;-68
2023/04/09 11:13:11;;;;;;;21.00;18.07;;;10.50;99.90;;;;;;5026955;28;20464;-68
2023/04/09 11:15:39;;;;;;;25.17;20.70;;;10.60;99.90;;;;;;5016613;28;20471;-67
2023/04/09 11:18:08;;;;;;;24.70;19.77;;;10.70;99.90;;;;;;5023188;28;20486;-67
2023/04/09 11:20:37;;;;;;;22.13;18.70;;;10.80;99.90;;;;;;5026594;28;20490;-68
2023/04/09 11:23:05;;;;;;;22.47;18.23;;;10.90;99.90;;;;;;5016777;28;20491;-67
2023/04/09 11:25:34;;;;;;;19.83;17.63;;;11.00;99.90;;;;;;5027156;28;20479;-67
2023/04/09 11:28:04;;;;;;;19.33;17.33;;;11.00;99.90;;;;;;5023693;28;20488;-68
2023/04/09 11:30:34;;;;;;;19.23;17.30;;;11.10;99.90;;;;;;5034586;28;20487;-68
2023/04/09 11:33:02;;;;;;;23.00;19.40;;;11.10;99.90;;;;;;5036671;28;20499;-67
2023/04/09 11:35:30;;;;;;;22.17;19.77;;;11.10;99.90;;;;;;5030488;28;20475;-67
2023/04/09 11:37:58;;;;;;;21.20;19.00;;;11.10;99.90;;;;;;5040205;28;20505;-67
2023/04/09 11:40:28;;;;;;;21.93;19.50;;;11.20;99.90;;;;;;5037211;28;21099;-68
2023/04/09 11:42:56;;;;;;;22.63;19.17;;;11.40;99.90;;;;;;5024530;28;20483;-67
2023/04/09 11:45:27;;;;;;;24.00;20.70;;;11.60;99.90;;;;;;5029863;28;20479;-67
2023/04/09 11:47:56;;;;;;;25.23;21.27;;;11.80;99.90;;;;;;5019825;28;20487;-67
2023/04/09 11:50:25;;;;;;;22.60;20.40;;;12.10;99.90;;;;;;5027542;28;20483;-67
2023/04/09 11:52:53;;;;;;;23.33;20.83;;;12.20;99.90;;;;;;5029535;28;21095;-67
2023/04/09 11:55:25;;;;;;;22.20;19.27;;;12.30;99.90;;;;;;5021077;28;20507;-68
2023/04/09 11:57:59;;;;;;;20.10;17.97;;;12.40;99.90;;;;;;5028933;28;20528;-67
2023/04/09 12:00:28;;;;;;;21.47;17.87;;;12.50;99.90;;;;;;5023986;28;20497;-68
2023/04/09 12:03:02;;;;;;;20.10;17.93;;;12.80;99.90;;;;;;5019213;28;20475;-66
2023/04/09 12:05:32;;;;;;;19.47;17.37;;;13.00;99.90;;;;;;5028011;28;20869;-67
2023/04/09 12:08:03;;;;;;;18.97;16.93;;;13.40;99.90;;;;;;5022240;28;20483;-70
2023/04/09 12:10:33;;;;;;;20.10;17.57;;;13.60;99.90;;;;;;5026773;28;20487;-68
2023/04/09 12:13:03;;;;;;;19.47;17.00;;;13.90;99.90;;;;;;5028515;28;20479;-67
2023/04/09 12:15:32;;;;;;;20.10;17.97;;;14.10;99.90;;;;;;5020427;28;20471;-70
2023/04/09 12:18:02;;;;;;;20.80;18.67;;;14.30;99.90;;;;;;5028294;28;20486;-67
2023/04/09 12:20:33;;;;;;;18.20;16.30;;;14.40;99.90;;;;;;5027206;28;20510;-67
2023/04/09 12:23:03;;;;;;;20.67;18.47;;;14.60;99.90;;;;;;5022704;28;21017;-67
2023/04/09 12:25:31;;;;;;;23.73;21.33;;;14.70;99.90;;;;;;5029390;28;20864;-67
2023/04/09 12:27:59;;;;;;;21.70;19.00;;;14.80;99.90;;;;;;5018546;28;20653;-68
2023/04/09 12:30:27;;;;;;;24.10;21.80;;;14.70;99.90;;;;;;5028532;28;20482;-68
2023/04/09 12:32:55;;;;;;;25.43;22.80;;;14.80;99.90;;;;;;5028261;28;20475;-67
2023/04/09 12:35:25;;;;;;;25.00;22.40;;;15.00;99.90;;;;;;5017012;28;20475;-67
2023/04/09 12:37:53;;;;;;;22.97;20.57;;;15.10;99.90;;;;;;5029349;28;20558;-66
2023/04/09 12:40:22;;;;;;;25.97;23.20;;;15.20;99.90;;;;;;5028565;28;20495;-67
2023/04/09 12:42:50;;;;;;;28.90;25.87;;;15.40;99.90;;;;;;5021922;28;20463;-69
2023/04/09 12:45:19;;;;;;;26.20;23.40;;;15.50;99.90;;;;;;5026534;28;20999;-67
2023/04/09 12:47:47;;;;;;;22.40;20.13;;;15.60;99.90;;;;;;5016683;28;20558;-67